Time;durP1;ratioP1;P1;durP2;ratioP2;P2;SDS_P1;SDS_P2;PMS_P1;PMS_P2;Temp;Humidity;BMP_temperature;BMP_pressure;BME280_temperature;BME280_humidity;BME280_pressure;Samples;Min_cycle;Max_cycle;Signal;HPM_P1;HPM_P2
2020/12/14 00:00:07;;;;;;;107.88;41.53;;;6.90;99.90;;;;;;5093877;28;20462;-46
2020/12/14 00:02:33;;;;;;;102.50;41.83;;;6.90;99.90;;;;;;5093635;28;20226;-46
2020/12/14 00:05:00;;;;;;;124.20;43.40;;;7.00;99.90;;;;;;5093834;28;20229;-45
2020/12/14 00:07:26;;;;;;;121.90;44.60;;;6.20;99.90;;;;;;5092968;28;20974;-46
2020/12/14 00:09:53;;;;;;;111.60;43.77;;;6.80;99.90;;;;;;5093707;28;20219;-44
2020/12/14 00:12:19;;;;;;;126.47;42.77;;;6.90;99.90;;;;;;5093444;28;20574;-44
2020/12/14 00:14:47;;;;;;;127.87;44.27;;;7.20;99.90;;;;;;5093691;28;20416;-43
2020/12/14 00:17:18;;;;;;;119.20;44.38;;;7.10;99.90;;;;;;5093726;28;20429;-45
2020/12/14 00:19:44;;;;;;;122.90;43.40;;;6.90;99.90;;;;;;5093492;28;20215;-45
2020/12/14 00:22:11;;;;;;;129.75;45.22;;;6.80;99.90;;;;;;5093658;28;20433;-45
2020/12/14 00:24:37;;;;;;;131.70;42.65;;;7.00;99.90;;;;;;5092506;28;20200;-45
2020/12/14 00:27:04;;;;;;;125.75;43.38;;;7.00;99.90;;;;;;5093531;28;20214;-45
2020/12/14 00:29:31;;;;;;;121.38;44.13;;;6.90;99.90;;;;;;5093452;28;20215;-44
2020/12/14 00:31:58;;;;;;;127.70;44.10;;;7.00;99.90;;;;;;5093291;28;20229;-44
2020/12/14 00:34:26;;;;;;;147.20;47.22;;;7.30;99.90;;;;;;5092801;28;20770;-44
2020/12/14 00:36:52;;;;;;;134.87;44.93;;;7.20;99.90;;;;;;5093282;28;20610;-45
2020/12/14 00:39:19;;;;;;;109.07;43.47;;;7.00;99.90;;;;;;5093023;28;20505;-44
2020/12/14 00:41:45;;;;;;;125.82;42.40;;;6.80;99.90;;;;;;5093109;28;20241;-44
2020/12/14 00:44:12;;;;;;;129.47;45.37;;;6.90;99.90;;;;;;5091631;28;20285;-46
2020/12/14 00:46:38;;;;;;;127.03;45.08;;;7.00;99.90;;;;;;5092860;28;20860;-45
2020/12/14 00:49:05;;;;;;;123.87;45.70;;;6.80;99.90;;;;;;5094445;28;20286;-45
2020/12/14 00:51:32;;;;;;;121.27;43.57;;;7.00;99.90;;;;;;5093042;28;20487;-45
2020/12/14 00:53:59;;;;;;;109.90;43.90;;;6.90;99.90;;;;;;5074458;28;20480;-45
2020/12/14 00:56:26;;;;;;;147.60;43.40;;;6.90;99.90;;;;;;5093160;28;20425;-45
2020/12/14 00:58:52;;;;;;;114.47;41.40;;;7.00;99.90;;;;;;5093190;28;20493;-44
2020/12/14 01:01:19;;;;;;;126.80;46.10;;;6.90;99.90;;;;;;5093195;28;20429;-45
2020/12/14 01:03:46;;;;;;;122.27;45.43;;;7.20;99.90;;;;;;5075249;28;20469;-43
2020/12/14 01:06:13;;;;;;;116.70;45.33;;;6.80;99.90;;;;;;5093301;28;20407;-45
2020/12/14 01:08:41;;;;;;;115.27;43.93;;;7.10;99.90;;;;;;5092951;28;20427;-44
2020/12/14 01:11:08;;;;;;;117.93;45.00;;;7.10;99.90;;;;;;5092520;28;20460;-44
2020/12/14 01:13:35;;;;;;;120.17;42.73;;;7.20;99.90;;;;;;5092871;28;20223;-45
2020/12/14 01:16:02;;;;;;;111.47;42.47;;;7.00;99.90;;;;;;5093105;28;20841;-44
2020/12/14 01:18:28;;;;;;;116.27;46.30;;;7.00;99.90;;;;;;5075243;28;20493;-45
2020/12/14 01:20:55;;;;;;;107.67;43.27;;;7.30;99.90;;;;;;5093596;28;20472;-44
2020/12/14 01:23:22;;;;;;;104.07;44.37;;;7.10;99.90;;;;;;5092916;28;20465;-45
2020/12/14 01:25:48;;;;;;;100.40;40.77;;;6.90;99.90;;;;;;5093239;28;20424;-44
2020/12/14 01:28:15;;;;;;;104.07;44.00;;;7.10;99.90;;;;;;5093980;28;20544;-44
2020/12/14 01:30:41;;;;;;;115.33;43.80;;;7.30;99.90;;;;;;5094448;28;20516;-44
2020/12/14 01:33:08;;;;;;;102.67;41.43;;;7.20;99.90;;;;;;5093424;28;20912;-44
2020/12/14 01:35:34;;;;;;;108.17;40.97;;;7.20;99.90;;;;;;5093953;28;20433;-44
2020/12/14 01:38:01;;;;;;;101.90;40.50;;;7.30;99.90;;;;;;5094155;28;20488;-46
2020/12/14 01:40:28;;;;;;;96.23;39.47;;;7.00;99.90;;;;;;5092637;28;20875;-44
2020/12/14 01:42:55;;;;;;;91.40;38.33;;;7.10;99.90;;;;;;5093435;28;20452;-46
2020/12/14 01:45:21;;;;;;;92.70;38.83;;;7.00;99.90;;;;;;5095253;28;20536;-46
2020/12/14 01:47:49;;;;;;;90.40;40.17;;;7.20;99.90;;;;;;5094688;28;20819;-44
2020/12/14 01:50:17;;;;;;;108.77;42.50;;;7.20;99.90;;;;;;5093731;28;20473;-43
2020/12/14 01:52:45;;;;;;;108.67;43.50;;;7.10;99.90;;;;;;5093487;28;20484;-46
2020/12/14 01:55:14;;;;;;;103.20;41.90;;;7.20;99.90;;;;;;5093440;28;20462;-45
2020/12/14 01:57:41;;;;;;;105.70;41.87;;;7.50;99.90;;;;;;5092870;28;20978;-44
2020/12/14 02:00:09;;;;;;;111.03;43.70;;;7.10;99.90;;;;;;5092396;28;20904;-44
2020/12/14 02:02:36;;;;;;;86.07;40.10;;;7.10;99.90;;;;;;5072465;28;20887;-44
2020/12/14 02:05:04;;;;;;;101.60;41.53;;;7.10;99.90;;;;;;5073011;28;20882;-44
2020/12/14 02:07:31;;;;;;;97.23;40.07;;;7.00;99.90;;;;;;5072593;28;20519;-45
2020/12/14 02:09:57;;;;;;;99.53;41.00;;;6.70;99.90;;;;;;5081523;28;20469;-45
2020/12/14 02:12:25;;;;;;;99.47;42.40;;;7.30;99.90;;;;;;5092432;28;20988;-45
2020/12/14 02:14:54;;;;;;;111.33;42.10;;;7.20;99.90;;;;;;5092263;28;20946;-46
2020/12/14 02:17:21;;;;;;;106.87;39.90;;;7.10;99.90;;;;;;5092775;28;20461;-45
2020/12/14 02:19:48;;;;;;;98.87;40.00;;;7.30;99.90;;;;;;5092894;28;20516;-46
2020/12/14 02:22:17;;;;;;;90.50;39.07;;;7.20;99.90;;;;;;5092940;28;20430;-44
2020/12/14 02:24:51;;;;;;;101.13;40.10;;;7.10;99.90;;;;;;5093251;28;20476;-45
2020/12/14 02:27:18;;;;;;;92.57;38.50;;;7.30;99.90;;;;;;5092476;28;20429;-45
2020/12/14 02:29:47;;;;;;;84.77;34.83;;;7.00;99.90;;;;;;5074196;28;20485;-45
2020/12/14 02:32:15;;;;;;;98.23;35.80;;;7.10;99.90;;;;;;5092919;28;20977;-45
2020/12/14 02:34:42;;;;;;;83.93;33.87;;;7.20;99.90;;;;;;5074777;28;20506;-45
2020/12/14 02:37:10;;;;;;;80.35;35.33;;;7.20;99.90;;;;;;5092465;28;20460;-44
2020/12/14 02:39:38;;;;;;;89.57;37.53;;;7.20;99.90;;;;;;5091826;28;20242;-44
2020/12/14 02:42:10;;;;;;;86.00;37.90;;;7.10;99.90;;;;;;5093153;28;20464;-44
2020/12/14 02:44:37;;;;;;;80.33;34.10;;;7.10;99.90;;;;;;5092777;28;20778;-45
2020/12/14 02:47:04;;;;;;;117.33;38.70;;;7.10;99.90;;;;;;5092772;28;20410;-46
2020/12/14 02:49:31;;;;;;;91.40;37.27;;;7.10;99.90;;;;;;5092473;28;20838;-45
2020/12/14 02:51:57;;;;;;;124.68;37.85;;;7.10;99.90;;;;;;5092446;28;20448;-45
2020/12/14 02:54:24;;;;;;;84.57;33.73;;;7.50;99.90;;;;;;5092235;28;20234;-45
2020/12/14 02:56:51;;;;;;;82.18;32.55;;;7.20;99.90;;;;;;5092554;28;20461;-45
2020/12/14 02:59:19;;;;;;;86.03;32.73;;;7.00;99.90;;;;;;5091487;28;20303;-45
2020/12/14 03:01:47;;;;;;;70.70;29.70;;;7.00;99.90;;;;;;5091472;28;20938;-45
2020/12/14 03:04:13;;;;;;;79.70;31.07;;;7.00;99.90;;;;;;5092750;28;20421;-45
2020/12/14 03:06:40;;;;;;;82.37;31.73;;;7.10;99.90;;;;;;5091536;28;20428;-44
2020/12/14 03:09:06;;;;;;;63.00;29.80;;;7.00;99.90;;;;;;5090203;28;20560;-44
2020/12/14 03:11:33;;;;;;;75.88;33.08;;;7.00;99.90;;;;;;5090813;28;20903;-45
2020/12/14 03:13:59;;;;;;;86.65;33.80;;;7.00;99.90;;;;;;5090603;28;20309;-44
2020/12/14 03:16:27;;;;;;;126.20;46.60;;;7.10;99.90;;;;;;5091110;28;20197;-45
2020/12/14 03:18:53;;;;;;;155.45;51.30;;;7.30;99.90;;;;;;5071945;28;20468;-44
2020/12/14 03:21:20;;;;;;;160.23;52.77;;;7.30;99.90;;;;;;5090117;28;20191;-44
2020/12/14 03:23:46;;;;;;;142.87;49.10;;;7.20;99.90;;;;;;5094267;28;20482;-45
2020/12/14 03:26:16;;;;;;;143.60;47.40;;;7.30;99.90;;;;;;5094667;28;20460;-44
2020/12/14 03:28:43;;;;;;;134.30;46.97;;;7.30;99.90;;;;;;5094524;28;20904;-45
2020/12/14 03:31:10;;;;;;;145.10;45.47;;;7.20;99.90;;;;;;5094798;28;20420;-44
2020/12/14 03:33:37;;;;;;;144.07;44.83;;;7.30;99.90;;;;;;5094173;28;20529;-44
2020/12/14 03:36:04;;;;;;;120.17;44.10;;;7.30;99.90;;;;;;5094536;28;20429;-44
2020/12/14 03:38:31;;;;;;;116.93;39.57;;;7.20;99.90;;;;;;5094337;28;20477;-45
2020/12/14 03:41:03;;;;;;;93.30;37.00;;;7.50;99.90;;;;;;5093467;28;20456;-44
2020/12/14 03:43:29;;;;;;;96.20;37.90;;;7.30;99.90;;;;;;5093299;28;20465;-44
2020/12/14 03:45:56;;;;;;;78.67;34.50;;;7.40;99.90;;;;;;5094285;28;20242;-45
2020/12/14 03:48:23;;;;;;;86.07;36.50;;;7.70;99.90;;;;;;5094160;28;20507;-44
2020/12/14 03:50:50;;;;;;;105.73;36.60;;;7.40;99.90;;;;;;5094177;28;20406;-46
2020/12/14 03:53:17;;;;;;;87.93;33.97;;;7.30;99.90;;;;;;5093549;28;20562;-44
2020/12/14 03:55:44;;;;;;;83.73;35.33;;;7.20;99.90;;;;;;5094026;28;20396;-45
2020/12/14 03:58:11;;;;;;;112.00;35.67;;;7.30;99.90;;;;;;5094031;28;20424;-44
2020/12/14 04:00:37;;;;;;;81.95;36.60;;;7.30;99.90;;;;;;5094186;28;20429;-46
2020/12/14 04:03:07;;;;;;;97.97;34.07;;;7.40;99.90;;;;;;5093699;28;20227;-45
2020/12/14 04:05:33;;;;;;;91.73;33.30;;;7.40;99.90;;;;;;5093830;28;20935;-44
2020/12/14 04:08:01;;;;;;;74.90;34.10;;;7.60;99.90;;;;;;5093873;28;20445;-44
2020/12/14 04:10:28;;;;;;;91.43;35.20;;;7.30;99.90;;;;;;5092121;28;20485;-44
2020/12/14 04:12:54;;;;;;;90.37;36.73;;;7.20;99.90;;;;;;5074977;28;20576;-44
2020/12/14 04:15:21;;;;;;;80.97;34.30;;;7.60;99.90;;;;;;5093759;28;20720;-44
2020/12/14 04:17:47;;;;;;;76.73;32.17;;;7.30;99.90;;;;;;5093619;28;20518;-44
2020/12/14 04:20:14;;;;;;;79.40;33.47;;;7.20;99.90;;;;;;5093659;28;20808;-45
2020/12/14 04:22:40;;;;;;;71.60;32.00;;;7.50;99.90;;;;;;5093399;28;20438;-45
2020/12/14 04:25:08;;;;;;;75.27;33.73;;;7.60;99.90;;;;;;5092548;28;20420;-45
2020/12/14 04:27:34;;;;;;;72.90;33.10;;;7.50;99.90;;;;;;5093305;28;20434;-45
2020/12/14 04:30:01;;;;;;;61.40;31.47;;;7.10;99.90;;;;;;5093305;28;20489;-44
2020/12/14 04:32:27;;;;;;;55.77;30.07;;;7.20;99.90;;;;;;5092656;28;20404;-44
2020/12/14 04:34:54;;;;;;;60.03;31.13;;;7.20;99.90;;;;;;5093394;28;20466;-45
2020/12/14 04:37:20;;;;;;;56.10;31.05;;;7.40;99.90;;;;;;5093327;28;20404;-46
2020/12/14 04:39:47;;;;;;;48.63;27.40;;;7.50;99.90;;;;;;5093207;28;20219;-45
2020/12/14 04:42:14;;;;;;;52.60;28.50;;;7.30;99.90;;;;;;5092902;28;20413;-45
2020/12/14 04:44:42;;;;;;;47.47;26.37;;;7.60;99.90;;;;;;5091883;28;20445;-45
2020/12/14 04:47:12;;;;;;;51.80;29.10;;;7.20;99.90;;;;;;5093171;28;20840;-45
2020/12/14 04:49:40;;;;;;;52.00;26.83;;;7.30;99.90;;;;;;5093315;28;20971;-45
2020/12/14 04:52:07;;;;;;;50.83;25.80;;;7.50;99.90;;;;;;5092913;28;21027;-45
2020/12/14 04:54:34;;;;;;;48.80;27.27;;;7.30;99.90;;;;;;5092378;28;20508;-45
2020/12/14 04:57:05;;;;;;;39.88;24.67;;;7.20;99.90;;;;;;5093039;28;20849;-45
2020/12/14 04:59:33;;;;;;;46.80;26.70;;;7.40;99.90;;;;;;5092844;28;20210;-45
2020/12/14 05:02:05;;;;;;;55.40;26.85;;;7.20;99.90;;;;;;5092864;28;20482;-45
2020/12/14 05:04:32;;;;;;;43.20;25.93;;;7.10;99.90;;;;;;5092876;28;20570;-44
2020/12/14 05:06:58;;;;;;;48.13;24.73;;;7.60;99.90;;;;;;5093269;28;20529;-44
2020/12/14 05:09:25;;;;;;;52.42;25.00;;;7.10;99.90;;;;;;5091620;28;20314;-44
2020/12/14 05:11:51;;;;;;;42.50;24.90;;;7.10;99.90;;;;;;5091929;28;20287;-44
2020/12/14 05:14:20;;;;;;;43.47;24.60;;;7.30;99.90;;;;;;5092603;28;20459;-43
2020/12/14 05:16:48;;;;;;;42.07;23.87;;;7.40;99.90;;;;;;5093545;28;20415;-45
2020/12/14 05:19:19;;;;;;;43.35;24.08;;;7.10;99.90;;;;;;5092228;28;20505;-44
2020/12/14 05:21:49;;;;;;;42.03;25.27;;;7.10;99.90;;;;;;5092225;28;20272;-45
2020/12/14 05:24:23;;;;;;;41.43;23.93;;;7.10;99.90;;;;;;5092116;28;20514;-44
2020/12/14 05:26:50;;;;;;;43.30;24.77;;;7.20;99.90;;;;;;5092081;28;20421;-45
2020/12/14 05:29:23;;;;;;;42.90;25.63;;;7.30;99.90;;;;;;5092209;28;20445;-44
2020/12/14 05:32:04;;;;;;;46.03;26.45;;;7.10;99.90;;;;;;5092546;28;20762;-46
2020/12/14 05:34:32;;;;;;;43.13;24.77;;;7.20;99.90;;;;;;5092684;28;20252;-44
2020/12/14 05:36:59;;;;;;;39.07;24.40;;;7.40;99.90;;;;;;5092880;28;20411;-44
2020/12/14 05:39:28;;;;;;;45.27;25.23;;;7.20;99.90;;;;;;5093112;28;20480;-45
2020/12/14 05:42:06;;;;;;;41.25;24.88;;;7.10;99.90;;;;;;5091558;28;20537;-44
2020/12/14 05:44:33;;;;;;;42.27;25.23;;;7.20;99.90;;;;;;5091194;28;20229;-45
2020/12/14 05:46:59;;;;;;;41.53;25.53;;;7.20;99.90;;;;;;5092758;28;20718;-44
2020/12/14 05:49:27;;;;;;;40.67;24.07;;;7.30;99.90;;;;;;5092185;28;20444;-45
2020/12/14 05:52:00;;;;;;;40.83;22.33;;;7.10;99.90;;;;;;5092025;28;20423;-44
2020/12/14 05:54:37;;;;;;;38.60;25.30;;;7.20;99.90;;;;;;5092143;28;20448;-45
2020/12/14 05:57:04;;;;;;;41.67;25.87;;;7.30;99.90;;;;;;5092673;28;20461;-44
2020/12/14 05:59:35;;;;;;;40.07;25.67;;;7.10;99.90;;;;;;5092325;28;21036;-44
2020/12/14 06:02:04;;;;;;;39.20;24.17;;;7.20;99.90;;;;;;5092252;28;20440;-45
2020/12/14 06:04:34;;;;;;;46.77;27.03;;;7.10;99.90;;;;;;5091673;28;20412;-44
2020/12/14 06:07:04;;;;;;;45.70;27.37;;;7.10;99.90;;;;;;5092016;28;20429;-45
2020/12/14 06:09:36;;;;;;;45.60;26.80;;;7.10;99.90;;;;;;5090764;28;20555;-45
2020/12/14 06:12:05;;;;;;;44.30;25.00;;;7.10;99.90;;;;;;5091657;28;20806;-45
2020/12/14 06:14:39;;;;;;;37.47;24.60;;;6.90;99.90;;;;;;5090892;28;20477;-45
2020/12/14 06:17:10;;;;;;;42.63;26.08;;;7.10;99.90;;;;;;5091279;28;20906;-45
2020/12/14 06:19:38;;;;;;;47.37;28.40;;;7.30;99.90;;;;;;5090840;28;20215;-45
2020/12/14 06:22:09;;;;;;;44.90;27.30;;;7.30;99.90;;;;;;5090799;28;20418;-45
2020/12/14 06:24:38;;;;;;;41.80;27.23;;;7.10;99.90;;;;;;5072740;28;20950;-45
2020/12/14 06:27:09;;;;;;;45.07;26.33;;;7.00;99.90;;;;;;5090994;28;20472;-45
2020/12/14 06:29:36;;;;;;;46.20;26.93;;;7.20;99.90;;;;;;5091873;28;20761;-45
2020/12/14 06:32:04;;;;;;;39.50;24.90;;;7.20;99.90;;;;;;5073639;28;20865;-45
2020/12/14 06:34:41;;;;;;;42.03;26.83;;;7.20;99.90;;;;;;5090636;28;20802;-46
2020/12/14 06:37:08;;;;;;;50.83;29.70;;;7.10;99.90;;;;;;5072940;28;20446;-45
2020/12/14 06:39:37;;;;;;;50.50;29.17;;;7.20;99.90;;;;;;5089341;28;20838;-46
2020/12/14 06:42:22;;;;;;;43.47;26.60;;;7.10;99.90;;;;;;5090263;28;20437;-45
2020/12/14 06:45:08;;;;;;;51.63;28.60;;;6.80;99.90;;;;;;5089537;28;20896;-45
2020/12/14 06:47:51;;;;;;;43.87;26.43;;;7.10;99.90;;;;;;5090693;28;20490;-45
2020/12/14 06:50:29;;;;;;;42.37;27.70;;;7.00;99.90;;;;;;5088124;28;20584;-46
2020/12/14 06:52:56;;;;;;;53.40;28.07;;;7.00;99.90;;;;;;5090208;28;20924;-46
2020/12/14 06:55:46;;;;;;;46.93;26.20;;;7.30;99.90;;;;;;5090211;28;20516;-45
2020/12/14 06:58:38;;;;;;;42.65;26.70;;;7.20;99.90;;;;;;5094478;28;20449;-46
2020/12/14 07:01:25;;;;;;;43.72;26.40;;;7.20;99.90;;;;;;5094377;28;20259;-45
2020/12/14 07:03:51;;;;;;;39.57;23.97;;;7.10;99.90;;;;;;5093996;28;20210;-45
2020/12/14 07:06:26;;;;;;;34.53;23.17;;;7.10;99.90;;;;;;5094447;28;20461;-44
2020/12/14 07:08:53;;;;;;;36.60;22.97;;;7.10;99.90;;;;;;5093447;28;20215;-47
2020/12/14 07:11:22;;;;;;;37.90;23.60;;;7.10;99.90;;;;;;5074012;28;20419;-44
2020/12/14 07:13:49;;;;;;;33.72;22.63;;;7.00;99.90;;;;;;5088158;28;20536;-44
2020/12/14 07:16:17;;;;;;;35.50;22.00;;;7.00;99.90;;;;;;5094296;28;20251;-45
2020/12/14 07:18:46;;;;;;;34.77;22.87;;;7.30;99.90;;;;;;5094555;28;20448;-44
2020/12/14 07:21:14;;;;;;;34.77;21.90;;;7.20;99.90;;;;;;5094289;28;20516;-44
2020/12/14 07:23:43;;;;;;;32.77;21.23;;;7.20;99.90;;;;;;5075429;28;20441;-45
2020/12/14 07:26:12;;;;;;;34.28;23.27;;;7.20;99.90;;;;;;5075859;28;20473;-44
2020/12/14 07:28:44;;;;;;;33.90;22.58;;;6.90;99.90;;;;;;5093974;28;20684;-44
2020/12/14 07:31:14;;;;;;;41.87;23.20;;;7.20;99.90;;;;;;5075903;28;20203;-44
2020/12/14 07:33:50;;;;;;;36.80;22.63;;;7.10;99.90;;;;;;5093777;28;20924;-45
2020/12/14 07:36:16;;;;;;;38.33;23.20;;;6.90;99.90;;;;;;5094198;28;20476;-45
2020/12/14 07:38:50;;;;;;;36.40;22.67;;;6.90;99.90;;;;;;5093757;28;20488;-45
2020/12/14 07:41:16;;;;;;;38.33;22.42;;;7.10;99.90;;;;;;5093575;28;20430;-45
2020/12/14 07:43:54;;;;;;;38.33;25.10;;;7.10;99.90;;;;;;5094005;28;20263;-45
2020/12/14 07:46:26;;;;;;;50.97;24.98;;;7.30;99.90;;;;;;5093723;28;20479;-44
2020/12/14 07:49:15;;;;;;;36.60;25.30;;;7.10;99.90;;;;;;5094190;28;20233;-45
2020/12/14 07:51:43;;;;;;;36.22;23.15;;;7.40;99.90;;;;;;5087636;28;20949;-44
2020/12/14 07:54:13;;;;;;;37.70;23.30;;;7.10;99.90;;;;;;5093680;28;20219;-43
2020/12/14 07:56:41;;;;;;;41.10;26.58;;;7.20;99.90;;;;;;5093475;28;20437;-44
2020/12/14 07:59:17;;;;;;;33.20;23.60;;;7.10;99.90;;;;;;5093831;28;20250;-44
2020/12/14 08:01:46;;;;;;;35.93;24.73;;;7.30;99.90;;;;;;5093103;28;20442;-44
2020/12/14 08:04:13;;;;;;;33.97;24.17;;;7.10;99.90;;;;;;5092644;28;20429;-45
2020/12/14 08:06:41;;;;;;;35.33;23.70;;;7.40;99.90;;;;;;5093268;28;20432;-44
2020/12/14 08:09:11;;;;;;;35.07;23.10;;;7.10;99.90;;;;;;5092062;28;20457;-44
2020/12/14 08:11:38;;;;;;;30.27;22.57;;;7.20;99.90;;;;;;5092061;28;20453;-45
2020/12/14 08:14:05;;;;;;;33.97;23.50;;;7.20;99.90;;;;;;5092534;28;20516;-44
2020/12/14 08:16:32;;;;;;;30.63;22.60;;;7.50;99.90;;;;;;5092920;28;20199;-44
2020/12/14 08:18:58;;;;;;;28.57;22.07;;;7.40;99.90;;;;;;5092656;28;21001;-44
2020/12/14 08:21:26;;;;;;;27.33;20.77;;;7.10;99.90;;;;;;5092603;28;20478;-44
2020/12/14 08:23:54;;;;;;;32.53;23.97;;;7.20;99.90;;;;;;5092508;28;20434;-45
2020/12/14 08:26:25;;;;;;;27.77;22.60;;;7.10;99.90;;;;;;5093060;28;20431;-44
2020/12/14 08:28:58;;;;;;;26.60;21.37;;;7.10;99.90;;;;;;5092545;28;20423;-44
2020/12/14 08:31:25;;;;;;;28.40;20.97;;;7.10;99.90;;;;;;5074339;28;20494;-45
2020/12/14 08:33:53;;;;;;;35.97;22.60;;;7.30;99.90;;;;;;5092194;28;20443;-45
2020/12/14 08:36:20;;;;;;;31.43;22.07;;;7.10;99.90;;;;;;5091972;28;20430;-46
2020/12/14 08:38:47;;;;;;;34.03;23.13;;;7.00;99.90;;;;;;5092296;28;20462;-45
2020/12/14 08:41:19;;;;;;;28.87;23.10;;;7.20;99.90;;;;;;5091731;28;20453;-46
2020/12/14 08:43:46;;;;;;;32.95;24.58;;;7.30;99.90;;;;;;5092341;28;20429;-46
2020/12/14 08:46:15;;;;;;;29.85;22.98;;;7.20;99.90;;;;;;5092494;28;20219;-46
2020/12/14 08:48:45;;;;;;;27.38;22.48;;;7.20;99.90;;;;;;5092068;28;20223;-46
2020/12/14 08:51:13;;;;;;;32.63;23.90;;;7.10;99.90;;;;;;5092540;28;20615;-47
2020/12/14 08:53:41;;;;;;;40.73;23.63;;;7.10;99.90;;;;;;5092164;28;20522;-46
2020/12/14 08:56:09;;;;;;;25.63;20.80;;;7.40;99.90;;;;;;5093043;28;20433;-46
2020/12/14 08:58:58;;;;;;;30.33;20.70;;;7.30;99.90;;;;;;5091816;28;20462;-45
2020/12/14 09:01:25;;;;;;;26.50;21.07;;;7.20;99.90;;;;;;5086650;28;20591;-46
2020/12/14 09:03:54;;;;;;;26.00;20.20;;;7.60;99.90;;;;;;5092316;28;20409;-46
2020/12/14 09:06:28;;;;;;;30.13;18.87;;;7.30;99.90;;;;;;5107185;22;20554;-50
2020/12/14 09:09:07;;;;;;;26.00;20.50;;;7.20;99.90;;;;;;5092673;28;20432;-48
2020/12/14 09:11:37;;;;;;;28.93;19.53;;;7.50;99.90;;;;;;5093792;28;20194;-48
2020/12/14 09:14:06;;;;;;;24.38;18.95;;;7.30;99.90;;;;;;5104185;28;20507;-49
2020/12/14 09:16:33;;;;;;;25.50;17.87;;;7.40;99.90;;;;;;5092546;28;20682;-49
2020/12/14 09:19:00;;;;;;;30.60;20.40;;;7.60;99.90;;;;;;5092671;28;20495;-49
2020/12/14 09:21:26;;;;;;;24.97;19.60;;;7.70;99.90;;;;;;5085647;28;20448;-49
2020/12/14 09:24:13;;;;;;;30.97;21.00;;;7.40;99.90;;;;;;5085252;28;20522;-49
2020/12/14 09:26:41;;;;;;;23.53;19.20;;;7.60;99.90;;;;;;5073262;28;20413;-48
2020/12/14 09:29:09;;;;;;;27.00;19.70;;;7.50;99.90;;;;;;5075288;28;20441;-49
2020/12/14 09:31:37;;;;;;;24.43;19.40;;;7.70;99.90;;;;;;5092268;28;20470;-49
2020/12/14 09:34:03;;;;;;;27.23;19.15;;;7.90;99.90;;;;;;5091680;28;20487;-49
2020/12/14 09:36:30;;;;;;;22.53;17.33;;;7.60;99.90;;;;;;5091796;28;20204;-49
2020/12/14 09:38:57;;;;;;;24.90;18.63;;;7.50;99.90;;;;;;5077449;28;20447;-49
2020/12/14 09:41:29;;;;;;;21.70;17.30;;;7.90;99.90;;;;;;5053433;28;20449;-48
2020/12/14 09:43:55;;;;;;;22.10;17.63;;;7.30;99.90;;;;;;5088813;28;20445;-49
2020/12/14 09:46:25;;;;;;;25.87;18.23;;;7.90;99.90;;;;;;5091333;28;20485;-49
2020/12/14 09:48:53;;;;;;;23.93;17.13;;;7.90;99.90;;;;;;5092210;28;20439;-50
2020/12/14 09:51:21;;;;;;;23.40;17.42;;;7.90;99.90;;;;;;5091931;28;20823;-48
2020/12/14 09:53:48;;;;;;;22.90;17.93;;;7.70;99.90;;;;;;5091554;28;20210;-49
2020/12/14 09:56:14;;;;;;;19.87;15.53;;;7.70;99.90;;;;;;5075091;28;20561;-50
2020/12/14 09:58:41;;;;;;;23.17;18.10;;;7.60;99.90;;;;;;5071227;28;20438;-49
2020/12/14 10:01:08;;;;;;;28.33;17.60;;;7.80;99.90;;;;;;5071378;28;20417;-49
2020/12/14 10:03:36;;;;;;;26.43;17.07;;;7.90;99.90;;;;;;5071046;28;20431;-49
2020/12/14 10:06:02;;;;;;;25.83;17.07;;;8.00;99.90;;;;;;5071592;28;20784;-48
2020/12/14 10:08:29;;;;;;;21.63;16.07;;;8.10;99.90;;;;;;5071394;28;20987;-49
2020/12/14 10:10:56;;;;;;;21.73;17.27;;;8.10;99.90;;;;;;5071676;28;20428;-49
2020/12/14 10:13:23;;;;;;;22.03;17.90;;;8.10;99.90;;;;;;5079266;28;21006;-49
2020/12/14 10:15:50;;;;;;;21.70;15.43;;;8.10;99.90;;;;;;5091617;28;20453;-49
2020/12/14 10:18:16;;;;;;;24.00;15.33;;;8.00;99.90;;;;;;5091760;28;20435;-48
2020/12/14 10:20:44;;;;;;;25.77;16.90;;;8.30;99.90;;;;;;5091452;28;20429;-48
2020/12/14 10:23:11;;;;;;;20.60;15.70;;;8.00;99.90;;;;;;5091753;28;20758;-48
2020/12/14 10:25:38;;;;;;;19.83;16.00;;;8.20;99.90;;;;;;5074055;28;20444;-48
2020/12/14 10:28:05;;;;;;;21.03;16.07;;;8.20;99.90;;;;;;5091724;28;20442;-48
2020/12/14 10:30:32;;;;;;;22.77;16.13;;;8.30;99.90;;;;;;5074166;28;20520;-49
2020/12/14 10:32:59;;;;;;;20.40;15.63;;;8.20;99.90;;;;;;5074647;28;20536;-51
2020/12/14 10:35:25;;;;;;;23.43;16.30;;;8.10;99.90;;;;;;5075172;28;20858;-49
2020/12/14 10:37:55;;;;;;;20.90;15.40;;;8.30;99.90;;;;;;5074978;28;20485;-49
2020/12/14 10:40:21;;;;;;;22.70;16.73;;;8.30;99.90;;;;;;5075019;28;20517;-49
2020/12/14 10:42:48;;;;;;;22.90;15.40;;;8.10;99.90;;;;;;5086917;28;20499;-49
2020/12/14 10:45:15;;;;;;;20.60;16.93;;;8.30;99.90;;;;;;5095098;28;20802;-48
2020/12/14 10:47:42;;;;;;;23.20;15.93;;;8.40;99.90;;;;;;5095660;28;20470;-48
2020/12/14 10:50:09;;;;;;;29.00;17.33;;;8.50;99.90;;;;;;5095772;28;20457;-48
2020/12/14 10:52:36;;;;;;;22.53;17.53;;;8.50;99.90;;;;;;5091795;28;20830;-49
2020/12/14 10:55:04;;;;;;;20.63;15.53;;;8.50;99.90;;;;;;5093841;28;20551;-49
2020/12/14 10:57:30;;;;;;;26.97;16.37;;;8.50;99.90;;;;;;5095571;28;20503;-47
2020/12/14 11:00:03;;;;;;;25.50;18.50;;;8.50;99.90;;;;;;5094441;28;20420;-48
2020/12/14 11:02:30;;;;;;;22.07;17.03;;;8.80;99.90;;;;;;5074584;28;20756;-50
2020/12/14 11:04:57;;;;;;;23.10;16.07;;;8.80;99.90;;;;;;5074129;28;20439;-49
2020/12/14 11:07:23;;;;;;;23.33;17.23;;;8.70;99.90;;;;;;5075430;28;20452;-48
2020/12/14 11:09:50;;;;;;;23.93;16.50;;;8.70;99.90;;;;;;5074880;28;20440;-48
2020/12/14 11:12:17;;;;;;;24.05;18.88;;;8.70;99.90;;;;;;5073603;28;20449;-48
2020/12/14 11:14:44;;;;;;;22.00;17.07;;;9.20;99.90;;;;;;5074886;28;20228;-48
2020/12/14 11:17:10;;;;;;;23.20;16.17;;;9.00;99.90;;;;;;5074528;28;20435;-48
2020/12/14 11:19:37;;;;;;;24.97;17.07;;;8.70;99.90;;;;;;5074459;28;20410;-48
2020/12/14 11:22:03;;;;;;;20.33;15.77;;;8.80;99.90;;;;;;5073869;28;20918;-48
2020/12/14 11:24:31;;;;;;;25.73;15.73;;;8.90;99.90;;;;;;5085323;28;20489;-48
2020/12/14 11:26:57;;;;;;;21.37;15.43;;;9.10;99.90;;;;;;5084280;28;20520;-48
2020/12/14 11:29:27;;;;;;;19.60;14.57;;;8.90;99.90;;;;;;5082141;28;21006;-49
2020/12/14 11:31:54;;;;;;;21.90;15.80;;;9.00;99.90;;;;;;5060647;28;20546;-48
2020/12/14 11:34:20;;;;;;;25.10;13.40;;;8.90;99.90;;;;;;5073448;28;20475;-48
2020/12/14 11:36:47;;;;;;;18.73;15.20;;;9.10;99.90;;;;;;5074153;28;20436;-48
2020/12/14 11:39:14;;;;;;;19.73;14.60;;;9.00;99.90;;;;;;5073957;28;20441;-49
2020/12/14 11:41:40;;;;;;;23.13;14.97;;;8.90;99.90;;;;;;5073884;28;20460;-47
2020/12/14 11:44:07;;;;;;;19.30;14.30;;;9.00;99.90;;;;;;5072994;28;20461;-48
2020/12/14 11:46:34;;;;;;;20.63;15.07;;;8.70;99.90;;;;;;5073778;28;20435;-49
2020/12/14 11:49:01;;;;;;;25.30;15.83;;;8.80;99.90;;;;;;5073808;28;20496;-48
2020/12/14 11:51:27;;;;;;;20.67;15.07;;;9.00;99.90;;;;;;5073814;28;20484;-48
2020/12/14 11:53:55;;;;;;;22.60;14.90;;;8.60;99.90;;;;;;5076181;28;20487;-48
2020/12/14 11:56:21;;;;;;;20.88;14.52;;;8.70;99.90;;;;;;5093687;28;20513;-48
2020/12/14 11:58:48;;;;;;;20.20;13.90;;;8.80;99.90;;;;;;5076254;28;20197;-50
2020/12/14 12:01:14;;;;;;;21.00;16.23;;;8.60;99.90;;;;;;5083078;28;20507;-48
2020/12/14 12:03:42;;;;;;;21.17;14.10;;;8.70;99.90;;;;;;5073514;28;20440;-49
2020/12/14 12:06:08;;;;;;;18.53;14.73;;;8.80;99.90;;;;;;5074209;28;20544;-48
2020/12/14 12:08:35;;;;;;;20.33;14.27;;;8.60;99.90;;;;;;5073494;28;20479;-48
2020/12/14 12:11:02;;;;;;;21.53;14.17;;;8.80;99.90;;;;;;5073705;28;20505;-47
2020/12/14 12:13:32;;;;;;;20.27;14.27;;;8.70;99.90;;;;;;5073513;28;20517;-48
2020/12/14 12:15:58;;;;;;;20.90;14.33;;;8.60;99.90;;;;;;5074014;28;20427;-50
2020/12/14 12:18:25;;;;;;;16.63;13.40;;;8.60;99.90;;;;;;5073794;28;20489;-48
2020/12/14 12:20:52;;;;;;;16.73;12.50;;;8.60;99.90;;;;;;5074368;28;20444;-47
2020/12/14 12:23:18;;;;;;;22.23;14.20;;;8.50;99.90;;;;;;5077872;28;20423;-48
2020/12/14 12:25:45;;;;;;;18.57;12.90;;;8.40;99.90;;;;;;5094522;28;20503;-50
2020/12/14 12:28:13;;;;;;;21.80;13.90;;;8.60;99.90;;;;;;5093978;28;20522;-48
2020/12/14 12:30:40;;;;;;;21.47;13.20;;;8.60;99.90;;;;;;5075508;28;20664;-49
2020/12/14 12:33:06;;;;;;;18.00;12.80;;;8.90;99.90;;;;;;5072956;28;20415;-50
2020/12/14 12:35:33;;;;;;;18.87;13.23;;;8.90;99.90;;;;;;5073499;28;20481;-49
2020/12/14 12:38:00;;;;;;;17.13;12.70;;;8.20;99.90;;;;;;5056202;28;20855;-48
2020/12/14 12:40:27;;;;;;;20.77;14.10;;;8.90;99.90;;;;;;5084012;28;20988;-47